createdAt,value
2022-09-10T00:01:59.735Z,63.90
2022-09-10T00:04:02.042Z,64.00
2022-09-10T00:06:04.320Z,64.10
2022-09-10T00:08:07.103Z,64.50
2022-09-10T00:10:08.705Z,64.10
2022-09-10T00:12:10.874Z,64.20
2022-09-10T00:14:15.085Z,63.80
2022-09-10T00:16:20.441Z,63.80
2022-09-10T00:18:22.502Z,63.70
2022-09-10T00:20:24.369Z,63.70
2022-09-10T00:22:26.038Z,63.60
2022-09-10T00:24:27.883Z,63.70
2022-09-10T00:26:30.806Z,63.60
2022-09-10T00:28:32.424Z,63.50
2022-09-10T00:30:34.074Z,63.80
2022-09-10T00:32:35.703Z,63.80
2022-09-10T00:34:37.474Z,64.30
2022-09-10T00:36:40.666Z,63.90
2022-09-10T00:38:42.343Z,64.20
2022-09-10T00:40:44.117Z,64.20
2022-09-10T00:42:45.920Z,64.10
2022-09-10T00:44:47.792Z,64.30
2022-09-10T00:46:50.921Z,64.50
2022-09-10T00:48:55.657Z,64.10
2022-09-10T00:50:59.145Z,64.70
2022-09-10T00:53:02.349Z,64.50
2022-09-10T00:55:04.390Z,64.20
2022-09-10T00:57:08.872Z,64.40
2022-09-10T00:59:12.863Z,64.20
2022-09-10T01:01:15.232Z,64.00
2022-09-10T01:03:16.944Z,64.00
2022-09-10T01:05:19.249Z,64.10
2022-09-10T01:07:21.391Z,64.40
2022-09-10T01:09:23.491Z,64.60
2022-09-10T01:11:38.478Z,64.80
2022-09-10T01:13:40.395Z,64.50
2022-09-10T01:15:44.771Z,64.70
2022-09-10T01:17:55.849Z,64.60
2022-09-10T01:20:10.927Z,64.40
2022-09-10T01:22:12.526Z,64.80
2022-09-10T01:24:14.150Z,64.50
2022-09-10T01:26:15.817Z,64.50
2022-09-10T01:28:19.295Z,64.10
2022-09-10T01:30:22.814Z,64.70
2022-09-10T01:32:32.295Z,64.40
2022-09-10T01:34:41.958Z,64.80
2022-09-10T01:36:47.994Z,65.10
2022-09-10T01:38:51.622Z,65.10
2022-09-10T01:40:55.154Z,64.50
2022-09-10T01:43:01.832Z,64.60
2022-09-10T01:45:03.956Z,64.60
2022-09-10T01:47:27.567Z,64.80
2022-09-10T01:49:34.707Z,65.00
2022-09-10T01:51:36.840Z,64.70
2022-09-10T01:53:44.278Z,65.00
2022-09-10T01:55:53.796Z,64.70
2022-09-10T01:57:55.413Z,65.30
2022-09-10T01:59:59.888Z,65.10
2022-09-10T02:02:04.386Z,65.30
2022-09-10T02:04:08.655Z,64.70
2022-09-10T02:06:13.165Z,65.20
2022-09-10T02:08:20.229Z,65.10
2022-09-10T02:10:22.620Z,66.00
2022-09-10T02:12:24.711Z,65.30
2022-09-10T02:14:32.226Z,65.10
2022-09-10T02:16:51.519Z,64.70
2022-09-10T02:18:53.654Z,65.00
2022-09-10T02:20:56.437Z,65.10
2022-09-10T02:22:58.634Z,65.50
2022-09-10T02:25:00.284Z,65.60
2022-09-10T02:27:01.996Z,65.50
2022-09-10T02:29:04.441Z,65.90
2022-09-10T02:31:06.220Z,65.30
2022-09-10T02:33:07.923Z,65.30
2022-09-10T02:35:09.667Z,65.60
2022-09-10T02:37:11.317Z,65.80
2022-09-10T02:39:15.084Z,66.10
2022-09-10T02:41:17.862Z,65.80
2022-09-10T02:43:19.979Z,66.10
2022-09-10T02:45:21.744Z,66.10
2022-09-10T02:47:23.439Z,66.10
2022-09-10T02:49:25.059Z,65.70
2022-09-10T02:51:27.070Z,65.50
2022-09-10T02:53:29.255Z,65.10
2022-09-10T02:55:32.778Z,65.50
2022-09-10T02:57:34.393Z,65.60
2022-09-10T02:59:37.007Z,65.80
2022-09-10T03:01:39.116Z,65.60
2022-09-10T03:03:42.142Z,65.40
2022-09-10T03:05:43.994Z,65.30
2022-09-10T03:07:46.057Z,65.20
2022-09-10T03:09:47.722Z,65.20
2022-09-10T03:11:50.157Z,65.50
2022-09-10T03:13:52.082Z,65.50
2022-09-10T03:15:54.800Z,65.20
2022-09-10T03:17:56.428Z,65.40
2022-09-10T03:19:59.159Z,65.40
2022-09-10T03:22:00.857Z,65.10
2022-09-10T03:24:04.710Z,65.80
2022-09-10T03:26:06.937Z,65.20
2022-09-10T03:28:09.624Z,65.10
2022-09-10T03:30:11.659Z,65.10
2022-09-10T03:32:13.418Z,65.10
2022-09-10T03:34:15.034Z,65.50
2022-09-10T03:36:20.774Z,65.50
2022-09-10T03:38:23.830Z,65.50
2022-09-10T03:40:25.542Z,65.80
2022-09-10T03:42:27.123Z,65.50
2022-09-10T03:44:28.771Z,65.60
2022-09-10T03:46:30.853Z,65.80
2022-09-10T03:48:34.508Z,65.70
2022-09-10T03:50:36.755Z,65.40
2022-09-10T03:52:38.551Z,65.40
2022-09-10T03:54:40.247Z,65.70
2022-09-10T03:56:41.942Z,65.60
2022-09-10T03:58:43.609Z,65.70
2022-09-10T04:00:46.378Z,65.70
2022-09-10T04:02:48.305Z,65.90
2022-09-10T04:04:49.985Z,65.80
2022-09-10T04:06:54.296Z,65.80
2022-09-10T04:08:55.957Z,65.50
2022-09-10T04:11:01.536Z,65.90
2022-09-10T04:13:03.171Z,66.20
2022-09-10T04:15:07.202Z,66.20
2022-09-10T04:17:09.725Z,66.50
2022-09-10T04:19:11.343Z,66.00
2022-09-10T04:21:12.924Z,65.90
2022-09-10T04:23:16.349Z,66.60
2022-09-10T04:25:20.823Z,66.00
2022-09-10T04:27:22.736Z,66.00
2022-09-10T04:29:24.589Z,66.30
2022-09-10T04:31:26.243Z,66.40
2022-09-10T04:33:33.235Z,66.60
2022-09-10T04:35:35.011Z,66.50
2022-09-10T04:37:39.595Z,66.80
2022-09-10T04:39:43.422Z,66.00
2022-09-10T04:41:45.046Z,66.00
2022-09-10T04:43:46.732Z,67.10
2022-09-10T04:45:48.350Z,66.60
2022-09-10T04:47:49.999Z,66.30
2022-09-10T04:49:51.693Z,66.40
2022-09-10T04:51:54.129Z,66.20
2022-09-10T04:53:55.884Z,66.20
2022-09-10T04:56:01.926Z,66.00
2022-09-10T04:58:06.095Z,66.60
2022-09-10T05:00:08.767Z,67.00
2022-09-10T05:02:12.793Z,66.60
2022-09-10T05:04:14.638Z,66.70
2022-09-10T05:06:16.653Z,66.60
2022-09-10T05:08:20.934Z,66.70
2022-09-10T05:10:28.823Z,66.70
2022-09-10T05:12:31.384Z,66.80
2022-09-10T05:14:33.865Z,67.70
2022-09-10T05:16:36.528Z,67.00
2022-09-10T05:18:39.285Z,66.80
2022-09-10T05:20:43.326Z,66.70
2022-09-10T05:22:45.428Z,67.20
2022-09-10T05:24:47.245Z,66.80
2022-09-10T05:26:49.734Z,67.00
2022-09-10T05:28:53.212Z,67.30
2022-09-10T05:30:55.909Z,67.40
2022-09-10T05:33:00.961Z,66.60
2022-09-10T05:35:05.251Z,66.60
2022-09-10T05:37:11.936Z,66.70
2022-09-10T05:39:15.607Z,67.00
2022-09-10T05:41:18.144Z,66.90
2022-09-10T05:43:22.981Z,67.10
2022-09-10T05:45:24.754Z,67.20
2022-09-10T05:47:28.078Z,67.00
2022-09-10T05:49:32.730Z,66.90
2022-09-10T05:51:35.594Z,67.00
2022-09-10T05:53:38.424Z,67.20
2022-09-10T05:55:41.330Z,67.50
2022-09-10T05:57:42.967Z,67.60
2022-09-10T05:59:47.596Z,67.80
2022-09-10T06:01:51.328Z,68.00
2022-09-10T06:03:54.204Z,67.90
2022-09-10T06:05:57.070Z,67.90
2022-09-10T06:08:08.386Z,67.50
2022-09-10T06:10:13.142Z,67.30
2022-09-10T06:12:18.008Z,67.30
2022-09-10T06:14:20.279Z,67.20
2022-09-10T06:16:22.204Z,67.20
2022-09-10T06:18:23.992Z,66.90
2022-09-10T06:20:25.638Z,66.30
2022-09-10T06:22:27.966Z,66.80
2022-09-10T06:24:29.564Z,67.00
2022-09-10T06:26:31.825Z,67.00
2022-09-10T06:28:38.777Z,66.80
2022-09-10T06:30:41.279Z,67.30
2022-09-10T06:32:43.342Z,67.30
2022-09-10T06:34:45.219Z,67.40
2022-09-10T06:36:47.231Z,67.70
2022-09-10T06:38:49.515Z,67.40
2022-09-10T06:40:54.474Z,67.80
2022-09-10T06:42:56.395Z,67.90
2022-09-10T06:45:39.326Z,67.40
2022-09-10T06:50:27.079Z,67.50
2022-09-10T06:52:31.487Z,67.70
2022-09-10T06:54:37.527Z,67.50
2022-09-10T06:56:53.683Z,67.70
2022-09-10T06:59:01.503Z,67.90
2022-09-10T07:01:12.759Z,67.90
2022-09-10T07:03:16.682Z,67.70
2022-09-10T07:05:18.342Z,67.70
2022-09-10T07:07:21.043Z,67.60
2022-09-10T07:09:24.034Z,67.70
2022-09-10T07:11:41.201Z,67.80
2022-09-10T07:13:44.209Z,67.90
2022-09-10T07:15:46.596Z,68.20
2022-09-10T07:17:49.234Z,67.40
2022-09-10T07:19:51.376Z,67.00
2022-09-10T07:21:59.419Z,67.70
2022-09-10T07:24:04.171Z,67.90
2022-09-10T07:26:08.030Z,67.90
2022-09-10T07:28:13.235Z,68.00
2022-09-10T07:30:18.426Z,68.00
2022-09-10T07:32:20.683Z,68.40
2022-09-10T07:34:25.442Z,68.30
2022-09-10T07:36:28.289Z,68.10
2022-09-10T07:38:32.143Z,68.30
2022-09-10T07:40:34.706Z,68.10
2022-09-10T07:42:37.340Z,67.50
2022-09-10T07:44:39.154Z,67.60
2022-09-10T07:46:42.201Z,67.90
2022-09-10T07:48:48.561Z,66.90
2022-09-10T07:50:50.998Z,67.30
2022-09-10T07:52:54.282Z,67.80
2022-09-10T07:54:58.481Z,67.80
2022-09-10T07:57:00.200Z,68.30
2022-09-10T07:59:02.576Z,68.10
2022-09-10T08:01:11.505Z,68.40
2022-09-10T08:03:13.752Z,68.30
2022-09-10T08:05:16.963Z,68.20
2022-09-10T08:07:19.808Z,68.10
2022-09-10T08:09:21.479Z,68.00
2022-09-10T08:11:28.405Z,68.10
2022-09-10T08:13:32.392Z,68.20
2022-09-10T08:15:35.993Z,68.30
2022-09-10T08:17:38.352Z,67.70
2022-09-10T08:19:40.077Z,68.00
2022-09-10T08:21:41.977Z,68.10
2022-09-10T08:23:48.641Z,68.10
2022-09-10T08:25:51.457Z,68.00
2022-09-10T08:27:54.311Z,68.00
2022-09-10T08:29:56.332Z,68.00
2022-09-10T08:31:58.854Z,68.20
2022-09-10T08:34:05.485Z,68.10
2022-09-10T08:36:10.570Z,67.90
2022-09-10T08:38:12.779Z,67.80
2022-09-10T08:40:14.649Z,67.40
2022-09-10T08:42:19.862Z,67.60
2022-09-10T08:44:28.757Z,67.10
2022-09-10T08:46:34.211Z,67.20
2022-09-10T08:48:37.532Z,67.10
2022-09-10T08:50:52.489Z,67.40
2022-09-10T08:53:03.475Z,67.10
2022-09-10T08:55:17.119Z,67.10
2022-09-10T08:57:39.577Z,67.40
2022-09-10T08:59:44.567Z,67.70
2022-09-10T09:01:51.903Z,67.60
2022-09-10T09:03:57.177Z,67.50
2022-09-10T09:06:01.650Z,67.70
2022-09-10T09:08:10.839Z,67.40
2022-09-10T09:10:18.754Z,67.90
2022-09-10T09:12:35.868Z,67.80
2022-09-10T09:14:49.033Z,68.00
2022-09-10T09:17:11.489Z,68.00
2022-09-10T09:19:23.245Z,67.90
2022-09-10T09:21:36.633Z,68.10
2022-09-10T09:24:11.685Z,68.60
2022-09-10T09:26:13.775Z,69.00
2022-09-10T09:28:28.877Z,68.60
2022-09-10T09:30:34.267Z,68.50
2022-09-10T09:32:40.714Z,68.20
2022-09-10T09:34:54.287Z,68.40
2022-09-10T09:36:57.390Z,68.40
2022-09-10T09:39:02.074Z,68.00
2022-09-10T09:41:22.623Z,68.10
2022-09-10T09:43:36.498Z,68.30
2022-09-10T09:45:43.227Z,68.20
2022-09-10T09:47:46.851Z,67.80
2022-09-10T09:49:49.356Z,67.70
2022-09-10T09:51:51.845Z,67.80
2022-09-10T09:54:25.822Z,67.70
2022-09-10T09:56:27.556Z,67.80
2022-09-10T09:58:31.372Z,68.00
2022-09-10T10:00:36.072Z,67.80
2022-09-10T10:02:38.154Z,67.70
2022-09-10T10:04:42.391Z,67.70
2022-09-10T10:06:53.452Z,67.60
2022-09-10T10:08:57.129Z,67.50
2022-09-10T10:10:59.033Z,67.60
2022-09-10T10:13:00.657Z,67.60
2022-09-10T10:15:02.875Z,67.90
2022-09-10T10:17:21.756Z,67.90
2022-09-10T10:19:32.206Z,67.40
2022-09-10T10:21:34.467Z,67.30
2022-09-10T10:23:36.839Z,67.40
2022-09-10T10:25:41.108Z,67.50
2022-09-10T10:27:43.728Z,67.70
2022-09-10T10:30:00.103Z,67.40
2022-09-10T10:32:05.571Z,67.50
2022-09-10T10:34:10.253Z,67.40
2022-09-10T10:36:29.301Z,67.10
2022-09-10T10:38:31.274Z,67.10
2022-09-10T10:40:33.987Z,67.10
2022-09-10T10:42:35.562Z,67.00
2022-09-10T10:44:52.627Z,66.90
2022-09-10T10:46:57.314Z,66.80
2022-09-10T10:49:03.696Z,66.70
2022-09-10T10:51:14.910Z,66.60
2022-09-10T10:53:28.881Z,66.40
2022-09-10T10:55:30.993Z,66.30
2022-09-10T10:57:49.972Z,66.20
2022-09-10T10:59:54.367Z,66.00
2022-09-10T11:02:02.669Z,65.90
2022-09-10T11:04:04.326Z,65.80
2022-09-10T11:06:11.311Z,66.10
2022-09-10T11:08:36.329Z,66.00
2022-09-10T11:10:40.852Z,65.90
2022-09-10T11:12:45.796Z,66.10
2022-09-10T11:14:49.550Z,66.10
2022-09-10T11:16:58.851Z,66.00
2022-09-10T11:19:19.513Z,65.90
2022-09-10T11:21:24.753Z,65.80
2022-09-10T11:23:47.703Z,65.90
2022-09-10T11:25:49.348Z,65.70
2022-09-10T11:28:20.218Z,65.60
2022-09-10T11:30:22.288Z,65.70
2022-09-10T11:32:30.208Z,65.70
2022-09-10T11:34:35.367Z,65.80
2022-09-10T11:36:48.109Z,65.90
2022-09-10T11:38:52.897Z,65.90
2022-09-10T11:41:13.212Z,65.90
2022-09-10T11:43:25.889Z,66.10
2022-09-10T11:45:38.914Z,66.20
2022-09-10T11:47:42.853Z,66.30
2022-09-10T11:50:07.003Z,66.10
2022-09-10T11:52:11.295Z,66.10
2022-09-10T11:54:14.786Z,66.20
2022-09-10T11:56:25.946Z,66.60
2022-09-10T11:58:31.240Z,66.40
2022-09-10T12:00:37.738Z,66.40
2022-09-10T12:02:39.340Z,66.50
2022-09-10T12:04:50.586Z,66.70
2022-09-10T12:06:55.314Z,66.20
2022-09-10T12:09:00.770Z,66.30
2022-09-10T12:11:21.272Z,66.60
2022-09-10T12:13:23.152Z,66.70
2022-09-10T12:15:26.388Z,66.80
2022-09-10T12:17:30.506Z,67.90
2022-09-10T12:19:34.360Z,67.20
2022-09-10T12:21:37.928Z,67.00
2022-09-10T12:23:42.499Z,66.80
2022-09-10T12:25:44.358Z,67.00
2022-09-10T12:27:49.290Z,67.10
2022-09-10T12:29:50.963Z,67.20
2022-09-10T12:32:13.567Z,67.30
2022-09-10T12:34:16.897Z,67.40
2022-09-10T12:36:27.800Z,67.40
2022-09-10T12:38:48.041Z,67.40
2022-09-10T12:40:49.720Z,67.50
2022-09-10T12:42:51.852Z,67.60
2022-09-10T12:44:54.030Z,67.70
2022-09-10T12:47:14.438Z,67.70
2022-09-10T12:49:16.779Z,67.80
2022-09-10T12:51:18.469Z,67.40
2022-09-10T12:53:43.181Z,67.50
2022-09-10T12:55:59.513Z,67.50
2022-09-10T12:58:24.427Z,67.50
2022-09-10T13:00:27.958Z,67.50
2022-09-10T13:02:34.805Z,67.60
2022-09-10T13:04:37.559Z,67.60
2022-09-10T13:06:40.391Z,67.50
2022-09-10T13:08:43.663Z,67.50
2022-09-10T13:10:47.278Z,67.70
2022-09-10T13:12:51.160Z,67.50
2022-09-10T13:14:53.817Z,67.70
2022-09-10T13:16:55.445Z,67.80
2022-09-10T13:19:19.364Z,67.80
2022-09-10T13:21:23.860Z,67.70
2022-09-10T13:23:47.509Z,67.70
2022-09-10T13:25:50.145Z,67.90
2022-09-10T13:27:51.800Z,67.90
2022-09-10T13:29:56.381Z,68.00
2022-09-10T13:32:27.532Z,67.80
2022-09-10T13:34:29.143Z,67.80
2022-09-10T13:36:39.726Z,67.70
2022-09-10T13:39:03.099Z,67.60
2022-09-10T13:41:06.372Z,67.80
2022-09-10T13:43:13.770Z,67.80
2022-09-10T13:45:24.643Z,67.70
2022-09-10T13:47:47.389Z,67.70
2022-09-10T13:50:01.104Z,67.30
2022-09-10T13:52:04.530Z,67.20
2022-09-10T13:54:17.933Z,67.10
2022-09-10T13:56:22.572Z,66.70
2022-09-10T13:58:28.461Z,66.50
2022-09-10T14:00:36.805Z,66.50
2022-09-10T14:02:48.680Z,66.30
2022-09-10T14:04:51.684Z,66.40
2022-09-10T14:06:57.134Z,66.40
2022-09-10T14:09:02.756Z,66.40
2022-09-10T14:11:13.752Z,66.50
2022-09-10T14:13:19.324Z,66.70
2022-09-10T14:15:24.139Z,66.90
2022-09-10T14:17:28.757Z,66.60
2022-09-10T14:19:35.421Z,66.70
2022-09-10T14:21:37.126Z,66.70
2022-09-10T14:23:42.144Z,66.90
2022-09-10T14:25:44.936Z,67.00
2022-09-10T14:27:46.588Z,67.00
2022-09-10T14:29:50.277Z,67.10
2022-09-10T14:31:51.925Z,67.60
2022-09-10T14:33:57.513Z,67.60
2022-09-10T14:36:13.238Z,67.50
2022-09-10T14:38:24.312Z,67.10
2022-09-10T14:40:25.953Z,67.30
2022-09-10T14:42:32.830Z,67.50
2022-09-10T14:44:39.403Z,67.10
2022-09-10T14:46:47.254Z,67.10
2022-09-10T14:48:57.887Z,67.30
2022-09-10T14:51:12.747Z,67.30
2022-09-10T14:53:14.399Z,67.50
2022-09-10T14:55:17.356Z,67.20
2022-09-10T14:57:19.635Z,67.00
2022-09-10T14:59:30.288Z,66.90
2022-09-10T15:01:31.981Z,66.70
2022-09-10T15:03:35.624Z,67.00
2022-09-10T15:05:39.199Z,66.90
2022-09-10T15:07:41.243Z,66.70
2022-09-10T15:09:43.053Z,66.50
2022-09-10T15:11:55.788Z,66.70
2022-09-10T15:13:59.205Z,66.70
2022-09-10T15:16:01.009Z,66.80
2022-09-10T15:18:02.832Z,66.80
2022-09-10T15:20:04.632Z,67.00
2022-09-10T15:22:06.273Z,67.00
2022-09-10T15:24:09.948Z,67.00
2022-09-10T15:26:13.684Z,66.90
2022-09-10T15:28:15.404Z,67.10
2022-09-10T15:30:17.081Z,67.00
2022-09-10T15:32:18.716Z,66.80
2022-09-10T15:34:20.359Z,66.70
2022-09-10T15:36:22.546Z,66.80
2022-09-10T15:38:25.142Z,67.00
2022-09-10T15:40:26.874Z,67.00
2022-09-10T15:42:28.519Z,66.90
2022-09-10T15:44:30.164Z,67.10
2022-09-10T15:46:32.237Z,67.00
2022-09-10T15:48:33.890Z,66.90
2022-09-10T15:50:37.270Z,67.00
2022-09-10T15:52:39.148Z,66.80
2022-09-10T15:54:43.833Z,66.90
2022-09-10T15:56:45.705Z,67.70
2022-09-10T15:58:51.326Z,67.50
2022-09-10T16:00:53.083Z,66.50
2022-09-10T16:02:54.741Z,66.50
2022-09-10T16:04:56.349Z,66.60
2022-09-10T16:06:57.984Z,66.70
2022-09-10T16:09:03.271Z,66.80
2022-09-10T16:11:08.954Z,66.90
2022-09-10T16:13:10.591Z,66.60
2022-09-10T16:15:12.212Z,66.50
2022-09-10T16:17:15.233Z,66.40
2022-09-10T16:19:17.251Z,66.20
2022-09-10T16:21:22.730Z,66.40
2022-09-10T16:23:24.345Z,66.50
2022-09-10T16:25:25.966Z,66.50
2022-09-10T16:27:27.633Z,66.50
2022-09-10T16:29:29.315Z,66.50
2022-09-10T16:31:32.308Z,66.40
2022-09-10T16:33:34.033Z,66.40
2022-09-10T16:35:35.849Z,66.40
2022-09-10T16:37:37.521Z,66.50
2022-09-10T16:39:39.185Z,66.40
2022-09-10T16:41:41.738Z,66.30
2022-09-10T16:43:43.529Z,66.40
2022-09-10T16:45:51.419Z,66.40
2022-09-10T16:47:54.291Z,66.40
2022-09-10T16:49:55.900Z,66.40
2022-09-10T16:51:57.562Z,66.30
2022-09-10T16:54:03.077Z,66.30
2022-09-10T16:56:06.939Z,66.50
2022-09-10T16:58:10.223Z,66.60
2022-09-10T17:00:13.938Z,66.50
2022-09-10T17:02:15.766Z,66.60
2022-09-10T17:04:21.336Z,66.50
2022-09-10T17:06:26.426Z,66.40
2022-09-10T17:08:29.217Z,66.50
2022-09-10T17:10:31.394Z,66.80
2022-09-10T17:12:33.647Z,67.10
2022-09-10T17:14:35.288Z,66.90
2022-09-10T17:16:38.990Z,66.90
2022-09-10T17:18:40.766Z,66.90
2022-09-10T17:20:43.086Z,67.00
2022-09-10T17:22:45.236Z,67.00
2022-09-10T17:24:49.263Z,66.90
2022-09-10T17:26:51.380Z,66.90
2022-09-10T17:28:53.905Z,66.70
2022-09-10T17:30:56.627Z,66.60
2022-09-10T17:32:59.450Z,66.60
2022-09-10T17:35:01.086Z,66.70
2022-09-10T17:37:02.715Z,66.70
2022-09-10T17:39:04.369Z,66.40
2022-09-10T17:41:05.999Z,66.40
2022-09-10T17:43:08.254Z,66.40
2022-09-10T17:45:10.152Z,66.40
2022-09-10T17:47:11.874Z,66.50
2022-09-10T17:49:14.053Z,66.80
2022-09-10T17:51:17.062Z,67.70
2022-09-10T17:53:19.038Z,66.60
2022-09-10T17:55:20.679Z,66.50
2022-09-10T17:57:22.286Z,66.50
2022-09-10T17:59:25.234Z,66.50
2022-09-10T18:01:28.294Z,66.80
2022-09-10T18:03:31.393Z,66.70
2022-09-10T18:05:35.592Z,66.70
2022-09-10T18:07:37.341Z,66.50
2022-09-10T18:09:38.957Z,66.50
2022-09-10T18:11:41.126Z,66.70
2022-09-10T18:13:44.426Z,66.70
2022-09-10T18:15:46.442Z,66.90
2022-09-10T18:17:48.098Z,67.10
2022-09-10T18:19:50.190Z,67.20
2022-09-10T18:21:51.801Z,67.60
2022-09-10T18:23:54.918Z,67.70
2022-09-10T18:25:56.516Z,68.60
2022-09-10T18:28:04.146Z,67.80
2022-09-10T18:30:06.090Z,67.70
2022-09-10T18:32:08.747Z,67.80
2022-09-10T18:34:17.514Z,67.90
2022-09-10T18:36:23.316Z,67.90
2022-09-10T18:38:28.021Z,68.10
2022-09-10T18:40:29.640Z,68.20
2022-09-10T18:42:31.614Z,68.10
2022-09-10T18:44:34.130Z,68.20
2022-09-10T18:46:36.201Z,68.30
2022-09-10T18:48:38.016Z,68.40
2022-09-10T18:50:39.599Z,68.20
2022-09-10T18:52:41.442Z,68.10
2022-09-10T18:54:46.650Z,68.20
2022-09-10T18:56:49.381Z,68.30
2022-09-10T18:58:53.238Z,68.20
2022-09-10T19:00:58.481Z,68.10
2022-09-10T19:03:00.486Z,68.10
2022-09-10T19:05:17.577Z,68.20
2022-09-10T19:07:20.097Z,68.10
2022-09-10T19:09:26.496Z,68.00
2022-09-10T19:11:32.556Z,68.00
2022-09-10T19:13:34.749Z,68.00
2022-09-10T19:15:36.970Z,67.80
2022-09-10T19:17:40.546Z,67.70
2022-09-10T19:19:45.143Z,67.70
2022-09-10T19:21:48.027Z,67.90
2022-09-10T19:23:50.469Z,67.70
2022-09-10T19:25:56.151Z,67.60
2022-09-10T19:27:57.798Z,67.70
2022-09-10T19:30:02.400Z,67.80
2022-09-10T19:32:04.089Z,67.90
2022-09-10T19:34:06.786Z,67.40
2022-09-10T19:36:16.791Z,67.70
2022-09-10T19:38:37.146Z,67.90
2022-09-10T19:40:42.706Z,68.10
2022-09-10T19:42:47.352Z,68.10
2022-09-10T19:44:56.232Z,68.20
2022-09-10T19:46:58.732Z,68.30
2022-09-10T19:49:06.301Z,68.30
2022-09-10T19:51:13.409Z,68.50
2022-09-10T19:53:16.948Z,68.00
2022-09-10T19:55:29.776Z,68.50
2022-09-10T19:57:43.638Z,68.40
2022-09-10T19:59:46.105Z,68.60
2022-09-10T20:01:47.841Z,68.70
2022-09-10T20:03:50.689Z,68.60
2022-09-10T20:05:52.492Z,68.50
2022-09-10T20:07:54.183Z,68.80
2022-09-10T20:09:56.463Z,68.80
2022-09-10T20:11:58.211Z,68.70
2022-09-10T20:14:01.502Z,68.80
2022-09-10T20:16:04.096Z,68.70
2022-09-10T20:18:06.146Z,68.80
2022-09-10T20:20:08.016Z,68.60
2022-09-10T20:22:09.671Z,68.40
2022-09-10T20:24:12.765Z,68.60
2022-09-10T20:26:18.052Z,68.30
2022-09-10T20:28:19.789Z,68.50
2022-09-10T20:30:24.337Z,68.40
2022-09-10T20:32:26.040Z,68.50
2022-09-10T20:34:27.782Z,68.60
2022-09-10T20:36:31.262Z,68.70
2022-09-10T20:38:33.542Z,68.50
2022-09-10T20:40:36.308Z,68.60
2022-09-10T20:42:39.251Z,68.60
2022-09-10T20:44:40.913Z,68.60
2022-09-10T20:46:42.960Z,68.60
2022-09-10T20:48:48.865Z,68.70
2022-09-10T20:50:51.754Z,68.80
2022-09-10T20:52:53.434Z,68.70
2022-09-10T20:54:55.487Z,68.70
2022-09-10T20:56:57.475Z,68.60
2022-09-10T20:58:59.497Z,68.60
2022-09-10T21:01:04.768Z,68.80
2022-09-10T21:03:06.412Z,68.50
2022-09-10T21:05:08.298Z,68.60
2022-09-10T21:07:10.033Z,68.50
2022-09-10T21:09:11.721Z,68.50
2022-09-10T21:11:17.889Z,68.80
2022-09-10T21:13:23.266Z,68.70
2022-09-10T21:15:26.621Z,68.70
2022-09-10T21:17:28.301Z,68.60
2022-09-10T21:19:29.903Z,68.60
2022-09-10T21:21:33.947Z,68.70
2022-09-10T21:23:36.635Z,68.80
2022-09-10T21:25:38.263Z,69.10
2022-09-10T21:27:40.037Z,68.50
2022-09-10T21:29:41.685Z,68.70
2022-09-10T21:31:43.753Z,68.80
2022-09-10T21:33:46.113Z,68.80
2022-09-10T21:35:47.777Z,68.70
2022-09-10T21:37:49.410Z,68.70
2022-09-10T21:39:51.156Z,68.40
2022-09-10T21:41:52.788Z,68.30
2022-09-10T21:43:54.509Z,68.30
2022-09-10T21:45:56.102Z,68.30
2022-09-10T21:47:57.750Z,68.20
2022-09-10T21:49:59.445Z,68.00
2022-09-10T21:52:01.050Z,68.10
2022-09-10T21:54:04.267Z,68.20
2022-09-10T21:56:06.312Z,68.40
2022-09-10T21:58:07.951Z,68.10
2022-09-10T22:00:10.054Z,68.00
2022-09-10T22:02:14.963Z,68.20
2022-09-10T22:04:22.071Z,68.30
2022-09-10T22:06:25.802Z,68.70
2022-09-10T22:08:27.660Z,68.90
2022-09-10T22:10:30.129Z,68.50
2022-09-10T22:12:31.738Z,68.50
2022-09-10T22:14:33.508Z,68.80
2022-09-10T22:16:35.283Z,69.00
2022-09-10T22:18:37.929Z,68.90
2022-09-10T22:20:39.581Z,68.50
2022-09-10T22:22:41.251Z,68.80
2022-09-10T22:24:42.862Z,69.00
2022-09-10T22:26:44.873Z,69.20
2022-09-10T22:28:46.558Z,69.30
2022-09-10T22:30:48.140Z,69.50
2022-09-10T22:32:49.755Z,69.40
2022-09-10T22:34:51.432Z,69.30
2022-09-10T22:36:53.070Z,69.10
2022-09-10T22:39:04.900Z,69.10
2022-09-10T22:41:09.786Z,69.10
2022-09-10T22:43:11.396Z,68.70
2022-09-10T22:45:13.254Z,68.90
2022-09-10T22:47:15.212Z,69.00
2022-09-10T22:49:16.981Z,68.90
2022-09-10T22:51:20.089Z,68.80
2022-09-10T22:53:21.703Z,68.90
2022-09-10T22:55:23.352Z,68.90
2022-09-10T22:57:24.953Z,68.90
2022-09-10T22:59:27.685Z,69.00
2022-09-10T23:01:31.016Z,69.00
2022-09-10T23:03:33.052Z,68.80
2022-09-10T23:05:35.289Z,69.00
2022-09-10T23:07:37.019Z,69.00
2022-09-10T23:09:38.700Z,69.20
2022-09-10T23:11:40.825Z,69.20
2022-09-10T23:13:46.153Z,69.40
2022-09-10T23:15:47.881Z,69.70
2022-09-10T23:17:49.529Z,69.70
2022-09-10T23:19:51.165Z,69.80
2022-09-10T23:21:53.947Z,69.70
2022-09-10T23:23:57.109Z,69.80
2022-09-10T23:26:05.709Z,69.80
2022-09-10T23:28:07.673Z,69.70
2022-09-10T23:30:09.628Z,69.50
2022-09-10T23:32:11.221Z,69.50
2022-09-10T23:34:17.705Z,69.50
2022-09-10T23:36:19.370Z,69.50
2022-09-10T23:38:21.237Z,69.60
2022-09-10T23:40:27.963Z,69.60
2022-09-10T23:42:32.878Z,69.60
2022-09-10T23:44:35.146Z,69.60
2022-09-10T23:46:37.469Z,69.80
2022-09-10T23:48:39.697Z,69.80
2022-09-10T23:50:42.185Z,69.60
2022-09-10T23:52:43.774Z,69.70
2022-09-10T23:54:45.385Z,69.90
2022-09-10T23:56:46.992Z,69.90
2022-09-10T23:58:48.750Z,69.70
